createdAt,value
2018-03-17T00:00:35.584Z,97337.23
2018-03-17T00:03:02.994Z,97331.73
2018-03-17T00:05:30.409Z,97323.49
2018-03-17T00:07:57.815Z,97328.42
2018-03-17T00:10:25.220Z,97324.29
2018-03-17T00:12:52.642Z,97328.02
2018-03-17T00:15:20.046Z,97321.74
2018-03-17T00:17:47.455Z,97327.58
2018-03-17T00:20:14.872Z,97324.86
2018-03-17T00:22:42.274Z,97319.16
2018-03-17T00:25:09.679Z,97318.35
2018-03-17T00:27:37.086Z,97324.03
2018-03-17T00:30:04.486Z,97328.09
2018-03-17T00:32:31.945Z,97332.11
2018-03-17T00:34:59.306Z,97328.25
2018-03-17T00:37:26.723Z,97330.33
2018-03-17T00:39:54.131Z,97334.12
2018-03-17T00:42:21.544Z,97336.45
2018-03-17T00:44:48.954Z,97331.91
2018-03-17T00:47:16.378Z,97333.81
2018-03-17T00:49:43.782Z,97344.55
2018-03-17T00:52:11.200Z,97338.60
2018-03-17T00:54:38.611Z,97337.06
2018-03-17T00:57:06.030Z,97335.21
2018-03-17T00:59:33.436Z,97328.97
2018-03-17T01:02:00.887Z,97327.80
2018-03-17T01:04:28.271Z,97325.29
2018-03-17T01:06:55.693Z,97322.77
2018-03-17T01:09:23.089Z,97318.44
2018-03-17T01:11:50.508Z,97324.77
2018-03-17T01:14:17.915Z,97319.64
2018-03-17T01:16:45.337Z,97315.92
2018-03-17T01:19:12.746Z,97316.63
2018-03-17T01:21:40.175Z,97314.70
2018-03-17T01:24:07.578Z,97322.07
2018-03-17T01:26:34.982Z,97315.98
2018-03-17T01:29:02.405Z,97319.84
2018-03-17T01:31:29.824Z,97314.75
2018-03-17T01:33:57.240Z,97317.92
2018-03-17T01:36:24.659Z,97304.00
2018-03-17T01:38:52.068Z,97314.94
2018-03-17T01:41:19.484Z,97304.97
2018-03-17T01:43:46.927Z,97305.62
2018-03-17T01:46:14.326Z,97293.09
2018-03-17T01:48:41.742Z,97290.45
2018-03-17T01:51:09.152Z,97277.12
2018-03-17T01:53:36.579Z,97278.23
2018-03-17T01:56:03.977Z,97272.88
2018-03-17T01:58:31.394Z,97262.08
2018-03-17T02:00:58.798Z,97270.69
2018-03-17T02:03:26.214Z,97266.83
2018-03-17T02:05:53.619Z,97261.28
2018-03-17T02:08:21.025Z,97263.27
2018-03-17T02:10:48.442Z,97261.19
2018-03-17T02:13:15.863Z,97263.11
2018-03-17T02:15:43.261Z,97255.66
2018-03-17T02:18:10.682Z,97254.12
2018-03-17T02:20:38.096Z,97251.05
2018-03-17T02:23:05.513Z,97258.09
2018-03-17T02:25:32.921Z,97258.17
2018-03-17T02:28:00.333Z,97251.08
2018-03-17T02:30:27.744Z,97247.25
2018-03-17T02:32:55.159Z,97255.06
2018-03-17T02:35:22.563Z,97252.67
2018-03-17T02:37:49.974Z,97259.84
2018-03-17T02:40:17.392Z,97254.96
2018-03-17T02:42:44.810Z,97253.88
2018-03-17T02:45:12.228Z,97255.72
2018-03-17T02:47:39.643Z,97252.39
2018-03-17T02:50:07.058Z,97241.59
2018-03-17T02:52:34.517Z,97251.56
2018-03-17T02:55:01.888Z,97247.43
2018-03-17T02:57:29.295Z,97256.84
2018-03-17T02:59:56.710Z,97252.86
2018-03-17T03:02:24.114Z,97253.20
2018-03-17T03:04:51.525Z,97254.67
2018-03-17T03:07:18.936Z,97251.86
2018-03-17T03:09:46.378Z,97255.52
2018-03-17T03:12:13.761Z,97253.50
2018-03-17T03:14:41.178Z,97251.16
2018-03-17T03:17:08.582Z,97243.58
2018-03-17T03:19:35.991Z,97248.73
2018-03-17T03:22:03.391Z,97249.91
2018-03-17T03:24:30.796Z,97241.28
2018-03-17T03:26:58.209Z,97242.07
2018-03-17T03:29:25.625Z,97245.84
2018-03-17T03:31:53.029Z,97240.23
2018-03-17T03:34:20.433Z,97243.36
2018-03-17T03:36:47.849Z,97244.84
2018-03-17T03:39:15.250Z,97246.02
2018-03-17T03:41:42.694Z,97254.47
2018-03-17T03:44:10.098Z,97255.81
2018-03-17T03:46:37.514Z,97253.66
2018-03-17T03:49:04.922Z,97262.33
2018-03-17T03:51:32.328Z,97258.67
2018-03-17T03:53:59.748Z,97262.54
2018-03-17T03:56:27.169Z,97255.25
2018-03-17T03:58:54.578Z,97263.70
2018-03-17T04:01:22.006Z,97270.41
2018-03-17T04:03:49.414Z,97264.41
2018-03-17T04:06:16.838Z,97263.19
2018-03-17T04:08:44.253Z,97262.41
2018-03-17T04:11:11.666Z,97266.66
2018-03-17T04:13:39.078Z,97256.05
2018-03-17T04:16:06.508Z,97255.64
2018-03-17T04:18:33.907Z,97255.77
2018-03-17T04:21:01.324Z,97251.35
2018-03-17T04:23:28.735Z,97249.70
2018-03-17T04:25:56.141Z,97247.38
2018-03-17T04:28:23.555Z,97244.14
2018-03-17T04:30:50.969Z,97238.88
2018-03-17T04:33:18.377Z,97235.44
2018-03-17T04:35:45.790Z,97234.97
2018-03-17T04:38:13.204Z,97231.42
2018-03-17T04:40:40.623Z,97237.55
2018-03-17T04:43:08.030Z,97242.68
2018-03-17T04:45:35.450Z,97240.46
2018-03-17T04:48:02.864Z,97242.16
2018-03-17T04:50:30.274Z,97240.05
2018-03-17T04:52:57.686Z,97236.27
2018-03-17T04:55:25.094Z,97234.30
2018-03-17T04:57:52.505Z,97242.34
2018-03-17T05:00:19.909Z,97246.20
2018-03-17T05:02:47.342Z,97247.89
2018-03-17T05:05:14.737Z,97246.90
2018-03-17T05:07:42.154Z,97254.03
2018-03-17T05:10:09.560Z,97247.35
2018-03-17T05:12:36.973Z,97251.20
2018-03-17T05:15:05.301Z,97248.47
2018-03-17T05:17:32.713Z,97239.70
2018-03-17T05:20:00.110Z,97243.23
2018-03-17T05:22:27.790Z,97239.15
2018-03-17T05:24:55.202Z,97243.77
2018-03-17T05:27:22.630Z,97247.83
2018-03-17T05:29:50.034Z,97234.86
2018-03-17T05:32:17.832Z,97240.66
2018-03-17T05:34:45.237Z,97238.03
2018-03-17T05:37:12.658Z,97238.95
2018-03-17T05:39:40.064Z,97236.55
2018-03-17T05:42:07.474Z,97230.22
2018-03-17T05:44:34.878Z,97230.98
2018-03-17T05:47:02.311Z,97223.62
2018-03-17T05:49:29.731Z,97223.28
2018-03-17T05:51:57.141Z,97232.02
2018-03-17T05:54:24.559Z,97227.78
2018-03-17T05:56:51.966Z,97235.41
2018-03-17T05:59:19.394Z,97233.13
2018-03-17T06:01:46.799Z,97233.42
2018-03-17T06:04:14.218Z,97225.42
2018-03-17T06:06:41.623Z,97218.76
2018-03-17T06:09:09.034Z,97211.56
2018-03-17T06:11:36.442Z,97220.36
2018-03-17T06:14:03.923Z,97222.41
2018-03-17T06:16:31.268Z,97215.21
2018-03-17T06:18:58.686Z,97215.17
2018-03-17T06:21:26.182Z,97216.55
2018-03-17T06:23:53.667Z,97205.31
2018-03-17T06:26:21.074Z,97193.20
2018-03-17T06:28:48.491Z,97202.41
2018-03-17T06:31:15.908Z,97193.73
2018-03-17T06:33:43.301Z,97198.49
2018-03-17T06:36:10.740Z,97193.12
2018-03-17T06:38:38.150Z,97194.00
2018-03-17T06:41:05.554Z,97197.13
2018-03-17T06:43:32.966Z,97183.60
2018-03-17T06:46:00.377Z,97187.26
2018-03-17T06:48:27.832Z,97188.78
2018-03-17T06:50:55.248Z,97198.19
2018-03-17T06:53:22.687Z,97198.14
2018-03-17T06:55:50.153Z,97205.50
2018-03-17T06:58:17.722Z,97205.65
2018-03-17T07:00:45.135Z,97218.86
2018-03-17T07:03:12.544Z,97217.41
2018-03-17T07:05:39.950Z,97209.76
2018-03-17T07:08:07.354Z,97213.91
2018-03-17T07:10:34.767Z,97207.36
2018-03-17T07:13:02.182Z,97206.84
2018-03-17T07:15:29.596Z,97206.75
2018-03-17T07:17:56.990Z,97211.70
2018-03-17T07:20:24.402Z,97211.70
2018-03-17T07:22:51.972Z,97213.88
2018-03-17T07:25:20.315Z,97209.27
2018-03-17T07:27:47.679Z,97213.38
2018-03-17T07:30:15.099Z,97209.58
2018-03-17T07:32:42.507Z,97211.41
2018-03-17T07:35:10.008Z,97213.45
2018-03-17T07:37:37.420Z,97207.48
2018-03-17T07:40:04.832Z,97204.92
2018-03-17T07:42:32.286Z,97205.47
2018-03-17T07:44:59.703Z,97201.16
2018-03-17T07:47:27.116Z,97205.08
2018-03-17T07:49:54.527Z,97206.15
2018-03-17T07:52:21.940Z,97204.66
2018-03-17T07:54:49.363Z,97198.30
2018-03-17T07:57:16.770Z,97201.31
2018-03-17T07:59:44.182Z,97200.44
2018-03-17T08:02:11.586Z,97197.81
2018-03-17T08:04:38.991Z,97196.59
2018-03-17T08:07:06.407Z,97196.09
2018-03-17T08:09:33.849Z,97193.39
2018-03-17T08:12:01.410Z,97189.28
2018-03-17T08:14:28.831Z,97175.26
2018-03-17T08:16:56.243Z,97180.73
2018-03-17T08:19:23.648Z,97166.42
2018-03-17T08:21:51.074Z,97183.59
2018-03-17T08:24:18.468Z,97173.95
2018-03-17T08:26:45.878Z,97176.08
2018-03-17T08:29:13.285Z,97176.23
2018-03-17T08:31:40.707Z,97168.44
2018-03-17T08:34:08.151Z,97160.98
2018-03-17T08:36:35.555Z,97158.44
2018-03-17T08:39:02.950Z,97156.68
2018-03-17T08:41:30.364Z,97160.34
2018-03-17T08:43:57.767Z,97159.24
2018-03-17T08:46:25.188Z,97161.66
2018-03-17T08:48:52.601Z,97161.19
2018-03-17T08:51:20.270Z,97156.39
2018-03-17T08:53:47.681Z,97155.93
2018-03-17T08:56:15.090Z,97153.72
2018-03-17T08:58:42.499Z,97155.97
2018-03-17T09:01:09.914Z,97152.24
2018-03-17T09:03:37.318Z,97147.36
2018-03-17T09:06:04.750Z,97148.70
2018-03-17T09:08:32.157Z,97147.22
2018-03-17T09:10:59.567Z,97147.34
2018-03-17T09:13:27.003Z,97145.03
2018-03-17T09:15:54.412Z,97149.66
2018-03-17T09:18:21.858Z,97141.91
2018-03-17T09:20:49.266Z,97150.63
2018-03-17T09:23:16.690Z,97153.99
2018-03-17T09:25:44.100Z,97144.86
2018-03-17T09:28:11.512Z,97153.87
2018-03-17T09:30:38.925Z,97145.05
2018-03-17T09:33:06.338Z,97138.13
2018-03-17T09:35:33.737Z,97142.04
2018-03-17T09:38:01.154Z,97138.09
2018-03-17T09:40:28.666Z,97136.80
2018-03-17T09:42:56.082Z,97136.81
2018-03-17T09:45:23.494Z,97135.94
2018-03-17T09:47:50.917Z,97128.05
2018-03-17T09:50:18.321Z,97134.31
2018-03-17T09:52:45.738Z,97130.66
2018-03-17T09:55:13.141Z,97133.21
2018-03-17T09:57:40.587Z,97139.03
2018-03-17T10:00:07.995Z,97134.02
2018-03-17T10:02:35.407Z,97135.98
2018-03-17T10:05:02.820Z,97144.03
2018-03-17T10:07:30.230Z,97145.12
2018-03-17T10:09:57.647Z,97140.42
2018-03-17T10:12:25.055Z,97134.43
2018-03-17T10:14:52.465Z,97139.12
2018-03-17T10:17:19.862Z,97143.13
2018-03-17T10:19:47.274Z,97132.12
2018-03-17T10:22:14.678Z,97122.89
2018-03-17T10:24:42.085Z,97118.20
2018-03-17T10:27:09.493Z,97114.89
2018-03-17T10:29:36.999Z,97104.50
2018-03-17T10:32:04.426Z,97094.16
2018-03-17T10:34:31.919Z,97095.73
2018-03-17T10:36:59.314Z,97104.22
2018-03-17T10:39:26.727Z,97100.74
2018-03-17T10:41:54.140Z,97089.75
2018-03-17T10:44:21.546Z,97092.10
2018-03-17T10:46:51.307Z,97088.17
2018-03-17T10:49:18.718Z,97086.70
2018-03-17T10:51:46.277Z,97090.34
2018-03-17T10:54:13.711Z,97098.58
2018-03-17T10:56:41.098Z,97096.31
2018-03-17T10:59:08.552Z,97088.89
2018-03-17T11:01:41.935Z,97092.66
2018-03-17T11:04:09.441Z,97091.30
2018-03-17T11:06:36.850Z,97097.05
2018-03-17T11:09:04.266Z,97100.12
2018-03-17T11:11:31.686Z,97095.83
2018-03-17T11:13:59.099Z,97096.06
2018-03-17T11:16:26.502Z,97094.94
2018-03-17T11:18:53.916Z,97089.89
2018-03-17T11:21:21.337Z,97097.91
2018-03-17T11:23:48.848Z,97089.38
2018-03-17T11:26:16.293Z,97097.41
2018-03-17T11:28:43.699Z,97097.03
2018-03-17T11:31:11.112Z,97086.09
2018-03-17T11:33:38.530Z,97094.73
2018-03-17T11:36:05.938Z,97091.36
2018-03-17T11:38:33.346Z,97090.59
2018-03-17T11:41:00.777Z,97094.48
2018-03-17T11:43:28.190Z,97092.13
2018-03-17T11:45:55.598Z,97095.95
2018-03-17T11:48:23.032Z,97095.09
2018-03-17T11:50:50.582Z,97096.45
2018-03-17T11:53:18.220Z,97095.98
2018-03-17T11:55:45.801Z,97086.05
2018-03-17T11:58:13.214Z,97090.31
2018-03-17T12:00:40.619Z,97081.07
2018-03-17T12:03:08.039Z,97078.97
2018-03-17T12:05:35.446Z,97080.08
2018-03-17T12:08:02.867Z,97075.31
2018-03-17T12:10:30.271Z,97072.34
2018-03-17T12:12:57.684Z,97070.84
2018-03-17T12:15:25.091Z,97069.36
2018-03-17T12:17:52.505Z,97062.02
2018-03-17T12:20:19.932Z,97064.61
2018-03-17T12:22:47.343Z,97058.87
2018-03-17T12:25:14.760Z,97062.09
2018-03-17T12:27:42.177Z,97061.49
2018-03-17T12:30:09.591Z,97056.22
2018-03-17T12:32:37.007Z,97059.55
2018-03-17T12:35:04.412Z,97037.59
2018-03-17T12:37:31.823Z,97035.86
2018-03-17T12:39:59.221Z,97026.93
2018-03-17T12:42:26.639Z,97030.25
2018-03-17T12:44:54.043Z,97046.41
2018-03-17T12:47:21.462Z,97036.55
2018-03-17T12:49:48.868Z,97042.91
2018-03-17T12:52:16.299Z,97041.01
2018-03-17T12:54:43.705Z,97037.69
2018-03-17T12:57:11.105Z,97038.55
2018-03-17T12:59:38.529Z,97042.73
2018-03-17T13:02:05.936Z,97041.71
2018-03-17T13:04:33.354Z,97044.73
2018-03-17T13:07:00.758Z,97040.72
2018-03-17T13:09:28.174Z,97037.05
2018-03-17T13:11:55.576Z,97035.22
2018-03-17T13:14:22.991Z,97040.36
2018-03-17T13:16:50.396Z,97036.50
2018-03-17T13:19:29.542Z,97026.17
2018-03-17T13:21:56.945Z,97031.49
2018-03-17T13:24:24.358Z,97038.64
2018-03-17T13:27:03.519Z,97028.87
2018-03-17T13:29:30.934Z,97040.10
2018-03-17T13:31:58.348Z,97034.34
2018-03-17T13:34:25.759Z,97037.19
2018-03-17T13:37:05.118Z,97038.39
2018-03-17T13:39:32.538Z,97042.45
2018-03-17T13:41:59.944Z,97044.63
2018-03-17T13:44:27.355Z,97046.70
2018-03-17T13:46:54.771Z,97035.14
2018-03-17T13:49:22.195Z,97031.67
2018-03-17T13:51:49.589Z,97037.63
2018-03-17T13:54:17.011Z,97045.16
2018-03-17T13:56:44.417Z,97036.77
2018-03-17T13:59:11.830Z,97037.11
2018-03-17T14:01:39.240Z,97033.11
2018-03-17T14:04:06.668Z,97036.13
2018-03-17T14:06:34.081Z,97034.22
2018-03-17T14:09:01.489Z,97035.09
2018-03-17T14:11:28.902Z,97035.40
2018-03-17T14:13:56.336Z,97034.92
2018-03-17T14:16:23.748Z,97039.53
2018-03-17T14:18:51.177Z,97037.63
2018-03-17T14:21:18.618Z,97043.56
2018-03-17T14:23:46.067Z,97040.80
2018-03-17T14:26:13.456Z,97050.81
2018-03-17T14:28:40.867Z,97048.11
2018-03-17T14:31:08.283Z,97059.02
2018-03-17T14:33:35.694Z,97045.48
2018-03-17T14:36:03.119Z,97045.01
2018-03-17T14:38:30.538Z,97049.80
2018-03-17T14:40:57.995Z,97041.34
2018-03-17T14:43:25.414Z,97036.19
2018-03-17T14:45:52.836Z,97038.33
2018-03-17T14:51:20.126Z,97047.64
2018-03-17T14:53:47.555Z,97057.14
2018-03-17T14:56:14.975Z,97056.34
2018-03-17T14:58:42.528Z,97065.79
2018-03-17T15:01:11.587Z,97058.37
2018-03-17T15:03:39.024Z,97048.95
2018-03-17T15:06:06.458Z,97040.56
2018-03-17T15:08:33.900Z,97050.89
2018-03-17T15:11:07.579Z,97054.05
2018-03-17T15:13:42.813Z,97051.08
2018-03-17T15:16:12.371Z,97048.95
2018-03-17T15:18:45.680Z,97048.79
2018-03-17T15:21:13.144Z,97056.70
2018-03-17T15:23:40.563Z,97048.44
2018-03-17T15:26:08.003Z,97048.19
2018-03-17T15:28:36.886Z,97059.53
2018-03-17T15:31:04.352Z,97056.83
2018-03-17T15:33:31.798Z,97042.27
2018-03-17T15:35:59.271Z,97041.48
2018-03-17T15:38:26.698Z,97051.42
2018-03-17T15:40:54.148Z,97048.61
2018-03-17T15:43:21.554Z,97041.50
2018-03-17T15:45:49.008Z,97048.88
2018-03-17T15:48:16.440Z,97049.79
2018-03-17T15:50:43.855Z,97038.15
2018-03-17T15:53:11.287Z,97052.23
2018-03-17T15:55:38.723Z,97051.28
2018-03-17T15:58:06.174Z,97047.32
2018-03-17T16:00:33.595Z,97044.55
2018-03-17T16:03:01.024Z,97049.95
2018-03-17T16:05:28.443Z,97053.98
2018-03-17T16:07:55.876Z,97052.73
2018-03-17T16:10:23.331Z,97050.56
2018-03-17T16:12:50.787Z,97071.94
2018-03-17T16:15:18.351Z,97071.38
2018-03-17T16:17:45.735Z,97058.44
2018-03-17T16:20:13.163Z,97059.62
2018-03-17T16:22:40.590Z,97066.16
2018-03-17T16:25:08.158Z,97060.52
2018-03-17T16:27:35.577Z,97065.39
2018-03-17T16:30:03.004Z,97069.51
2018-03-17T16:32:30.559Z,97063.57
2018-03-17T16:34:57.982Z,97075.41
2018-03-17T16:37:25.403Z,97066.64
2018-03-17T16:39:52.854Z,97063.64
2018-03-17T16:42:20.300Z,97060.88
2018-03-17T16:44:47.711Z,97060.22
2018-03-17T16:47:15.152Z,97066.37
2018-03-17T16:49:42.558Z,97069.91
2018-03-17T16:52:10.016Z,97074.47
2018-03-17T16:54:37.431Z,97077.86
2018-03-17T16:57:04.858Z,97078.08
2018-03-17T16:59:32.308Z,97083.47
2018-03-17T17:01:59.730Z,97087.86
2018-03-17T17:04:27.151Z,97093.08
2018-03-17T17:06:54.583Z,97108.48
2018-03-17T17:09:22.016Z,97107.31
2018-03-17T17:11:49.430Z,97105.79
2018-03-17T17:14:16.858Z,97117.12
2018-03-17T17:16:44.288Z,97122.34
2018-03-17T17:19:11.702Z,97128.95
2018-03-17T17:21:39.125Z,97123.83
2018-03-17T17:24:06.558Z,97125.33
2018-03-17T17:26:33.976Z,97131.48
2018-03-17T17:29:01.396Z,97138.47
2018-03-17T17:31:28.822Z,97136.16
2018-03-17T17:33:56.254Z,97137.41
2018-03-17T17:36:23.679Z,97138.84
2018-03-17T17:38:51.120Z,97138.66
2018-03-17T17:41:18.591Z,97147.53
2018-03-17T17:43:45.981Z,97141.39
2018-03-17T17:46:13.398Z,97133.75
2018-03-17T17:48:40.826Z,97144.03
2018-03-17T17:51:08.255Z,97149.47
2018-03-17T17:53:35.707Z,97151.95
2018-03-17T17:56:03.141Z,97147.77
2018-03-17T17:58:30.652Z,97149.16
2018-03-17T18:00:58.040Z,97148.66
2018-03-17T18:03:25.474Z,97154.71
2018-03-17T18:05:52.927Z,97153.87
2018-03-17T18:08:20.370Z,97157.36
2018-03-17T18:10:47.798Z,97156.45
2018-03-17T18:13:15.240Z,97158.41
2018-03-17T18:15:42.684Z,97165.60
2018-03-17T18:18:10.115Z,97168.11
2018-03-17T18:20:37.550Z,97167.45
2018-03-17T18:23:04.979Z,97163.86
2018-03-17T18:25:32.413Z,97175.80
2018-03-17T18:27:59.830Z,97166.96
2018-03-17T18:30:27.287Z,97170.21
2018-03-17T18:32:54.714Z,97173.94
2018-03-17T18:35:22.144Z,97180.22
2018-03-17T18:37:49.599Z,97178.89
2018-03-17T18:40:17.030Z,97175.89
2018-03-17T18:42:44.451Z,97172.51
2018-03-17T18:45:11.883Z,97181.78
2018-03-17T18:47:39.328Z,97181.97
2018-03-17T18:50:06.758Z,97180.01
2018-03-17T18:52:34.203Z,97181.30
2018-03-17T18:55:01.619Z,97187.40
2018-03-17T18:57:32.850Z,97193.89
2018-03-17T19:00:00.285Z,97190.89
2018-03-17T19:02:27.731Z,97175.56
2018-03-17T19:04:55.172Z,97190.55
2018-03-17T19:07:23.050Z,97195.44
2018-03-17T19:09:50.616Z,97196.20
2018-03-17T19:12:18.063Z,97192.34
2018-03-17T19:14:45.684Z,97195.67
2018-03-17T19:17:13.107Z,97189.99
2018-03-17T19:19:40.531Z,97193.55
2018-03-17T19:22:07.958Z,97188.54
2018-03-17T19:24:35.392Z,97192.17
2018-03-17T19:27:02.830Z,97184.59
2018-03-17T19:29:30.280Z,97187.83
2018-03-17T19:31:57.740Z,97196.56
2018-03-17T19:34:25.190Z,97194.82
2018-03-17T19:36:52.654Z,97199.94
2018-03-17T19:39:20.070Z,97200.55
2018-03-17T19:41:47.507Z,97192.02
2018-03-17T19:44:14.973Z,97191.28
2018-03-17T19:46:42.377Z,97197.69
2018-03-17T19:49:11.336Z,97197.91
2018-03-17T19:51:38.776Z,97197.27
2018-03-17T19:54:06.279Z,97199.08
2018-03-17T19:56:33.706Z,97197.84
2018-03-17T19:59:01.152Z,97206.37
2018-03-17T20:01:28.636Z,97196.95
2018-03-17T20:03:56.022Z,97198.38
2018-03-17T20:06:23.691Z,97200.22
2018-03-17T20:08:51.111Z,97209.16
2018-03-17T20:11:18.544Z,97202.89
2018-03-17T20:13:45.983Z,97213.36
2018-03-17T20:16:13.402Z,97208.62
2018-03-17T20:18:40.830Z,97215.94
2018-03-17T20:21:08.271Z,97221.97
2018-03-17T20:23:35.713Z,97214.46
2018-03-17T20:26:03.141Z,97216.97
2018-03-17T20:28:30.707Z,97218.10
2018-03-17T20:30:58.126Z,97216.72
2018-03-17T20:33:25.571Z,97225.48
2018-03-17T20:35:53.011Z,97227.55
2018-03-17T20:38:20.443Z,97231.00
2018-03-17T20:40:47.867Z,97235.80
2018-03-17T20:43:15.311Z,97227.13
2018-03-17T20:45:42.752Z,97220.42
2018-03-17T20:48:10.200Z,97218.75
2018-03-17T20:50:40.124Z,97229.94
2018-03-17T20:53:07.575Z,97233.77
2018-03-17T20:55:35.004Z,97240.97
2018-03-17T20:58:02.500Z,97231.06
2018-03-17T21:00:29.909Z,97228.81
2018-03-17T21:02:57.386Z,97239.03
2018-03-17T21:05:24.828Z,97240.45
2018-03-17T21:07:52.294Z,97238.52
2018-03-17T21:10:19.744Z,97228.84
2018-03-17T21:12:50.904Z,97229.84
2018-03-17T21:15:30.830Z,97227.36
2018-03-17T21:17:58.287Z,97237.26
2018-03-17T21:20:25.744Z,97235.42
2018-03-17T21:22:53.186Z,97233.70
2018-03-17T21:25:23.427Z,97239.95
2018-03-17T21:27:56.229Z,97245.00
2018-03-17T21:30:27.325Z,97247.30
2018-03-17T21:32:54.859Z,97250.28
2018-03-17T21:35:22.586Z,97247.30
2018-03-17T21:37:50.032Z,97248.48
2018-03-17T21:40:17.460Z,97248.81
2018-03-17T21:42:47.234Z,97252.41
2018-03-17T21:45:14.690Z,97249.84
2018-03-17T21:47:42.119Z,97250.70
2018-03-17T21:50:09.540Z,97263.33
2018-03-17T21:52:36.961Z,97262.70
2018-03-17T21:55:04.404Z,97263.33
2018-03-17T21:57:31.929Z,97256.83
2018-03-17T22:02:37.440Z,97256.67
2018-03-17T22:05:04.875Z,97263.15
2018-03-17T22:07:32.282Z,97259.34
2018-03-17T22:09:59.698Z,97261.11
2018-03-17T22:12:27.121Z,97257.58
2018-03-17T22:14:54.547Z,97262.02
2018-03-17T22:17:21.956Z,97257.91
2018-03-17T22:19:49.377Z,97255.78
2018-03-17T22:22:16.782Z,97259.80
2018-03-17T22:24:44.206Z,97264.53
2018-03-17T22:27:11.622Z,97258.63
2018-03-17T22:29:39.042Z,97260.88
2018-03-17T22:32:06.443Z,97260.94
2018-03-17T22:34:33.854Z,97268.53
2018-03-17T22:37:01.262Z,97266.02
2018-03-17T22:39:28.695Z,97268.56
2018-03-17T22:41:56.100Z,97274.91
2018-03-17T22:44:23.513Z,97277.33
2018-03-17T22:46:50.939Z,97279.17
2018-03-17T22:49:18.361Z,97271.22
2018-03-17T22:51:45.795Z,97274.72
2018-03-17T22:54:13.206Z,97278.16
2018-03-17T22:56:40.619Z,97277.98
2018-03-17T22:59:08.028Z,97283.03
2018-03-17T23:01:35.458Z,97278.31
2018-03-17T23:04:02.868Z,97279.97
2018-03-17T23:06:30.290Z,97284.83
2018-03-17T23:08:57.756Z,97286.95
2018-03-17T23:11:25.170Z,97289.22
2018-03-17T23:13:52.573Z,97296.82
2018-03-17T23:16:19.994Z,97289.27
2018-03-17T23:18:47.578Z,97295.80
2018-03-17T23:21:14.997Z,97283.36
2018-03-17T23:23:42.416Z,97293.03
2018-03-17T23:26:09.821Z,97291.60
2018-03-17T23:28:37.237Z,97291.38
2018-03-17T23:31:04.655Z,97297.34
2018-03-17T23:33:32.087Z,97299.39
2018-03-17T23:35:59.500Z,97297.38
2018-03-17T23:38:26.914Z,97298.47
2018-03-17T23:40:54.325Z,97298.44
2018-03-17T23:43:21.746Z,97299.97
2018-03-17T23:45:49.162Z,97307.80
2018-03-17T23:48:16.582Z,97302.74
2018-03-17T23:50:43.998Z,97306.52
2018-03-17T23:53:11.417Z,97303.83
2018-03-17T23:55:38.836Z,97304.52
2018-03-17T23:58:06.254Z,97305.38
